Time;durP1;ratioP1;P1;durP2;ratioP2;P2;SDS_P1;SDS_P2;PMS_P1;PMS_P2;Temp;Humidity;BMP_temperature;BMP_pressure;BME280_temperature;BME280_humidity;BME280_pressure;Samples;Min_cycle;Max_cycle;Signal;HPM_P1;HPM_P2
2023/07/02 00:02:22;;;;;;;;;;;;;;;22.26;68.12;96211.52;614754;231;67063;-62
2023/07/02 00:04:50;;;;;;;;;;;;;;;22.26;68.18;96211.52;614801;228;65065;-62
2023/07/02 00:07:17;;;;;;;;;;;;;;;22.26;68.18;96216.88;614815;231;67232;-62
2023/07/02 00:09:45;;;;;;;;;;;;;;;22.26;68.20;96219.55;614757;231;66921;-61
2023/07/02 00:12:12;;;;;;;;;;;;;;;22.27;68.21;96212.30;614699;229;65099;-61
2023/07/02 00:14:40;;;;;;;;;;;;;;;22.26;68.23;96206.17;614764;231;67248;-61
2023/07/02 00:17:07;;;;;;;;;;;;;;;22.26;68.30;96200.81;614774;231;67342;-61
2023/07/02 00:19:34;;;;;;;;;;;;;;;22.27;68.19;96201.60;614812;231;65055;-61
2023/07/02 00:22:02;;;;;;;;;;;;;;;22.25;68.19;96196.53;614738;231;67060;-61
2023/07/02 00:24:30;;;;;;;;;;;;;;;22.25;68.19;96203.77;614614;231;67094;-61
2023/07/02 00:26:57;;;;;;;;;;;;;;;22.25;68.21;96196.53;614682;231;65058;-61
2023/07/02 00:29:25;;;;;;;;;;;;;;;22.25;68.21;96193.86;614759;231;67238;-61
2023/07/02 00:31:52;;;;;;;;;;;;;;;22.25;68.24;96203.77;614813;231;67768;-61
2023/07/02 00:34:19;;;;;;;;;;;;;;;22.26;68.24;96195.46;614791;231;65005;-61
2023/07/02 00:36:47;;;;;;;;;;;;;;;22.25;68.25;96204.56;614746;231;67012;-61
2023/07/02 00:39:17;;;;;;;;;;;;;;;22.25;68.23;96206.45;614763;231;64905;-61
2023/07/02 00:41:46;;;;;;;;;;;;;;;22.25;68.20;96217.95;614727;231;65183;-61
2023/07/02 00:44:13;;;;;;;;;;;;;;;22.26;68.16;96211.52;614788;231;67276;-62
2023/07/02 00:46:41;;;;;;;;;;;;;;;22.26;68.21;96214.20;614809;231;66983;-62
2023/07/02 00:49:09;;;;;;;;;;;;;;;22.26;68.23;96216.05;614738;228;64513;-62
2023/07/02 00:51:37;;;;;;;;;;;;;;;22.26;68.20;96210.70;614757;231;67178;-62
2023/07/02 00:54:04;;;;;;;;;;;;;;;22.24;68.23;96202.98;614749;231;64467;-62
2023/07/02 00:56:33;;;;;;;;;;;;;;;22.26;68.30;96208.84;614783;231;65606;-62
2023/07/02 00:59:01;;;;;;;;;;;;;;;22.24;68.26;96197.64;614859;231;64437;-62
2023/07/02 01:01:29;;;;;;;;;;;;;;;22.25;68.25;96195.75;614780;231;64887;-61
2023/07/02 01:03:59;;;;;;;;;;;;;;;22.24;68.29;96191.50;614773;231;64909;-61
2023/07/02 01:06:27;;;;;;;;;;;;;;;22.25;68.28;96206.45;614717;231;67000;-61
2023/07/02 01:08:56;;;;;;;;;;;;;;;22.25;68.24;96209.12;614815;231;67617;-61
2023/07/02 01:11:26;;;;;;;;;;;;;;;22.24;68.26;96189.61;614803;231;62892;-61
2023/07/02 01:13:55;;;;;;;;;;;;;;;22.25;68.29;96201.09;614475;229;64383;-61
2023/07/02 01:16:23;;;;;;;;;;;;;;;22.25;68.25;96198.42;614769;231;64572;-61
2023/07/02 01:18:54;;;;;;;;;;;;;;;22.25;68.30;96193.07;614783;231;65002;-61
2023/07/02 01:21:22;;;;;;;;;;;;;;;22.25;68.28;96198.42;614767;231;64738;-61
2023/07/02 01:23:50;;;;;;;;;;;;;;;22.24;68.27;96205.67;614802;231;64495;-61
2023/07/02 01:26:18;;;;;;;;;;;;;;;22.24;68.27;96202.98;614794;231;62987;-61
2023/07/02 01:28:45;;;;;;;;;;;;;;;22.24;68.26;96200.31;614725;231;67075;-61
2023/07/02 01:31:13;;;;;;;;;;;;;;;22.24;68.29;96192.28;614725;231;67191;-61
2023/07/02 01:33:42;;;;;;;;;;;;;;;22.25;68.29;96198.42;614777;231;64831;-61
2023/07/02 01:36:09;;;;;;;;;;;;;;;22.24;68.29;96192.28;614768;228;65120;-61
2023/07/02 01:38:37;;;;;;;;;;;;;;;22.24;68.32;96192.28;614809;231;67235;-61
2023/07/02 01:41:05;;;;;;;;;;;;;;;22.24;68.29;96192.28;614729;231;65621;-61
2023/07/02 01:43:32;;;;;;;;;;;;;;;22.25;68.33;96193.07;614770;231;67092;-61
2023/07/02 01:46:01;;;;;;;;;;;;;;;22.24;68.29;96189.61;614774;228;67005;-61
2023/07/02 01:48:29;;;;;;;;;;;;;;;22.24;68.32;96186.14;614786;231;63026;-61
2023/07/02 01:50:57;;;;;;;;;;;;;;;22.24;68.31;96183.47;614804;231;64543;-62
2023/07/02 01:53:24;;;;;;;;;;;;;;;22.24;68.32;96183.47;614817;231;64839;-62
2023/07/02 01:55:52;;;;;;;;;;;;;;;22.23;68.33;96179.97;614432;231;62933;-62
2023/07/02 01:58:20;;;;;;;;;;;;;;;22.23;68.30;96179.97;614783;231;67588;-63
2023/07/02 02:00:48;;;;;;;;;;;;;;;22.24;68.39;96178.11;614770;231;64887;-62
2023/07/02 02:03:15;;;;;;;;;;;;;;;22.24;68.32;96172.77;614823;231;64883;-62
2023/07/02 02:05:43;;;;;;;;;;;;;;;22.24;68.32;96176.22;614779;231;67080;-62
2023/07/02 02:08:10;;;;;;;;;;;;;;;22.24;68.33;96176.22;614786;231;67244;-62
2023/07/02 02:10:38;;;;;;;;;;;;;;;22.24;68.33;96178.90;614775;231;64985;-61
2023/07/02 02:13:06;;;;;;;;;;;;;;;22.24;68.36;96170.09;616018;229;68074;-61
2023/07/02 02:15:33;;;;;;;;;;;;;;;22.24;68.33;96164.73;617576;230;64821;-60
2023/07/02 02:18:01;;;;;;;;;;;;;;;22.24;68.32;96164.73;617540;230;62748;-61
2023/07/02 02:20:28;;;;;;;;;;;;;;;22.23;68.33;96158.56;617509;230;64851;-61
2023/07/02 02:22:56;;;;;;;;;;;;;;;22.24;68.33;96154.81;617493;230;67310;-61
2023/07/02 02:25:23;;;;;;;;;;;;;;;22.24;68.35;96164.73;617521;230;64997;-61
2023/07/02 02:27:51;;;;;;;;;;;;;;;22.24;68.33;96165.52;617540;230;67205;-61
2023/07/02 02:30:18;;;;;;;;;;;;;;;22.24;68.35;96156.70;617571;230;64803;-61
2023/07/02 02:32:46;;;;;;;;;;;;;;;22.24;68.33;96159.37;617517;230;65048;-61
2023/07/02 02:35:14;;;;;;;;;;;;;;;22.24;68.34;96162.84;617521;230;67952;-61
2023/07/02 02:37:41;;;;;;;;;;;;;;;22.23;68.31;96147.86;617522;230;67415;-61
2023/07/02 02:40:10;;;;;;;;;;;;;;;22.23;68.27;96145.18;617546;230;65118;-61
2023/07/02 02:42:39;;;;;;;;;;;;;;;22.24;68.37;96140.64;617573;230;67277;-61
2023/07/02 02:45:07;;;;;;;;;;;;;;;22.23;68.37;96153.21;617474;230;67571;-61
2023/07/02 02:47:35;;;;;;;;;;;;;;;22.23;68.35;96155.89;617529;230;62475;-61
2023/07/02 02:50:02;;;;;;;;;;;;;;;22.23;68.34;96166.59;617477;230;67599;-61
2023/07/02 02:52:31;;;;;;;;;;;;;;;22.23;68.33;96169.27;617496;230;67417;-60
2023/07/02 02:55:00;;;;;;;;;;;;;;;22.23;68.32;96166.59;617589;230;65139;-60
2023/07/02 02:57:27;;;;;;;;;;;;;;;22.23;68.36;96174.63;617514;229;67047;-59
2023/07/02 02:59:54;;;;;;;;;;;;;;;22.23;68.34;96173.83;617508;230;67448;-60
2023/07/02 03:02:22;;;;;;;;;;;;;;;22.22;68.36;96178.40;617583;230;63489;-59
2023/07/02 03:04:50;;;;;;;;;;;;;;;22.23;68.37;96171.16;617575;230;64159;-60
2023/07/02 03:07:18;;;;;;;;;;;;;;;22.23;68.35;96177.30;617569;230;67068;-60
2023/07/02 03:09:45;;;;;;;;;;;;;;;22.22;68.36;96181.08;617549;230;62705;-59
2023/07/02 03:12:13;;;;;;;;;;;;;;;22.23;68.40;96184.54;617503;229;67582;-59
2023/07/02 03:14:40;;;;;;;;;;;;;;;22.23;68.37;96188.00;617592;230;67273;-60
2023/07/02 03:17:08;;;;;;;;;;;;;;;22.23;68.37;96192.56;617525;230;65266;-60
2023/07/02 03:19:35;;;;;;;;;;;;;;;22.22;68.38;96193.67;617557;230;67286;-59
2023/07/02 03:22:03;;;;;;;;;;;;;;;22.23;68.37;96197.92;617574;230;64663;-60
2023/07/02 03:24:30;;;;;;;;;;;;;;;22.23;68.35;96205.95;617554;229;62777;-60
2023/07/02 03:26:58;;;;;;;;;;;;;;;22.22;68.37;96199.81;617574;230;67050;-60
2023/07/02 03:29:26;;;;;;;;;;;;;;;22.23;68.34;96200.59;617524;230;64758;-59
2023/07/02 03:31:53;;;;;;;;;;;;;;;22.22;68.37;96199.02;617573;230;64995;-60
2023/07/02 03:34:22;;;;;;;;;;;;;;;22.23;68.34;96201.38;617557;230;67197;-59
2023/07/02 03:36:49;;;;;;;;;;;;;;;22.22;68.33;96199.02;617569;230;67040;-60
2023/07/02 03:39:17;;;;;;;;;;;;;;;22.23;68.40;96206.73;617558;230;64861;-60
2023/07/02 03:41:45;;;;;;;;;;;;;;;22.22;68.38;96204.38;617566;230;64919;-60
2023/07/02 03:44:12;;;;;;;;;;;;;;;22.22;68.44;96209.73;617515;230;67042;-60
2023/07/02 03:46:40;;;;;;;;;;;;;;;22.21;68.42;96203.59;617579;230;65024;-60
2023/07/02 03:49:07;;;;;;;;;;;;;;;22.22;68.42;96205.16;617559;230;67228;-60
2023/07/02 03:51:35;;;;;;;;;;;;;;;22.22;68.42;96207.84;617575;230;64699;-60
2023/07/02 03:54:02;;;;;;;;;;;;;;;22.22;68.41;96209.73;617567;230;65060;-60
2023/07/02 03:56:29;;;;;;;;;;;;;;;22.22;68.40;96218.55;617548;230;67097;-60
2023/07/02 03:58:57;;;;;;;;;;;;;;;22.22;68.46;96221.22;617550;230;67443;-60
2023/07/02 04:01:24;;;;;;;;;;;;;;;22.23;68.42;96228.15;617557;230;65107;-60
2023/07/02 04:03:52;;;;;;;;;;;;;;;22.21;68.42;96226.86;617552;230;67273;-60
2023/07/02 04:06:20;;;;;;;;;;;;;;;22.21;68.44;96233.03;617590;230;67028;-60
2023/07/02 04:08:47;;;;;;;;;;;;;;;22.22;68.42;96228.46;617561;227;64844;-60
2023/07/02 04:11:15;;;;;;;;;;;;;;;22.22;68.43;96236.49;617529;230;64921;-60
2023/07/02 04:13:42;;;;;;;;;;;;;;;22.22;68.44;96237.28;615548;229;64595;-60
2023/07/02 04:16:10;;;;;;;;;;;;;;;22.22;68.49;96237.28;614793;231;62901;-61
2023/07/02 04:18:37;;;;;;;;;;;;;;;22.22;68.44;96244.52;614505;231;65421;-61
2023/07/02 04:21:05;;;;;;;;;;;;;;;22.21;68.42;96238.38;614787;231;66966;-61
2023/07/02 04:23:32;;;;;;;;;;;;;;;22.21;68.47;96243.73;614781;228;62880;-61
2023/07/02 04:26:00;;;;;;;;;;;;;;;22.23;68.45;96243.42;614480;231;65330;-62
2023/07/02 04:28:27;;;;;;;;;;;;;;;22.22;68.45;96247.20;614790;231;67088;-61
2023/07/02 04:30:55;;;;;;;;;;;;;;;22.22;68.46;96247.20;614745;231;65154;-61
2023/07/02 04:33:22;;;;;;;;;;;;;;;22.20;68.47;96242.13;614730;228;65024;-61
2023/07/02 04:35:50;;;;;;;;;;;;;;;22.21;68.45;96245.59;614813;231;67058;-61
2023/07/02 04:38:17;;;;;;;;;;;;;;;22.22;68.47;96239.17;614741;228;64992;-61
2023/07/02 04:40:45;;;;;;;;;;;;;;;22.22;68.50;96241.84;614789;231;67325;-62
2023/07/02 04:43:13;;;;;;;;;;;;;;;22.21;68.50;96246.41;614741;231;66930;-61
2023/07/02 04:45:41;;;;;;;;;;;;;;;22.21;68.47;96257.11;614736;231;65080;-60
2023/07/02 04:48:09;;;;;;;;;;;;;;;22.21;68.46;96261.65;614803;231;67231;-60
2023/07/02 04:50:36;;;;;;;;;;;;;;;22.21;68.50;96261.65;614740;231;65028;-60
2023/07/02 04:53:04;;;;;;;;;;;;;;;22.21;68.47;96262.47;614744;231;62860;-60
2023/07/02 04:55:31;;;;;;;;;;;;;;;22.22;68.54;96257.91;614791;231;67186;-60
2023/07/02 04:57:59;;;;;;;;;;;;;;;22.22;68.49;96264.04;614725;231;67025;-60
2023/07/02 05:00:26;;;;;;;;;;;;;;;22.20;68.51;96268.89;614750;231;64885;-60
2023/07/02 05:02:54;;;;;;;;;;;;;;;22.21;68.48;96270.50;614636;231;68190;-60
2023/07/02 05:05:21;;;;;;;;;;;;;;;22.21;68.51;96270.50;614772;231;66493;-60
2023/07/02 05:07:49;;;;;;;;;;;;;;;22.22;68.49;96273.95;614781;231;64993;-60
2023/07/02 05:10:16;;;;;;;;;;;;;;;22.21;68.52;96273.17;614781;231;66890;-60
2023/07/02 05:12:44;;;;;;;;;;;;;;;22.20;68.55;96279.59;614703;229;66942;-60
2023/07/02 05:15:12;;;;;;;;;;;;;;;22.21;68.55;96288.41;614849;231;65003;-60
2023/07/02 05:17:39;;;;;;;;;;;;;;;22.21;68.56;96281.20;614783;231;64604;-60
2023/07/02 05:20:09;;;;;;;;;;;;;;;22.21;68.54;96278.52;614804;231;48047;-60
2023/07/02 05:22:37;;;;;;;;;;;;;;;22.20;68.54;96282.27;614770;231;65036;-60
2023/07/02 05:25:06;;;;;;;;;;;;;;;22.20;68.57;96287.63;614733;231;48496;-60
2023/07/02 05:27:34;;;;;;;;;;;;;;;22.21;68.57;96288.41;614847;231;65109;-60
2023/07/02 05:30:01;;;;;;;;;;;;;;;22.20;68.57;96287.63;614817;231;63205;-60
2023/07/02 05:32:29;;;;;;;;;;;;;;;22.20;68.57;96281.48;614772;231;66907;-60
2023/07/02 05:34:56;;;;;;;;;;;;;;;22.21;68.62;96285.73;614768;231;67009;-60
2023/07/02 05:37:24;;;;;;;;;;;;;;;22.20;68.62;96287.63;614792;231;64852;-60
2023/07/02 05:39:51;;;;;;;;;;;;;;;22.20;68.62;96281.48;614595;231;65353;-60
2023/07/02 05:42:19;;;;;;;;;;;;;;;22.20;68.62;96290.30;614794;231;64885;-60
2023/07/02 05:44:46;;;;;;;;;;;;;;;22.20;68.65;96282.27;614763;231;62782;-60
2023/07/02 05:47:13;;;;;;;;;;;;;;;22.20;68.62;96289.52;614745;228;65170;-60
2023/07/02 05:49:42;;;;;;;;;;;;;;;22.20;68.63;96287.63;614810;231;64909;-60
2023/07/02 05:52:10;;;;;;;;;;;;;;;22.20;68.58;96289.52;614833;231;65079;-60
2023/07/02 05:54:39;;;;;;;;;;;;;;;22.20;68.63;96298.33;614789;231;67223;-60
2023/07/02 05:57:06;;;;;;;;;;;;;;;22.20;68.62;96297.54;614523;231;64852;-60
2023/07/02 05:59:34;;;;;;;;;;;;;;;22.20;68.65;96287.63;614764;231;63022;-60
2023/07/02 06:02:01;;;;;;;;;;;;;;;22.20;68.63;96284.16;614777;231;65015;-60
2023/07/02 06:04:29;;;;;;;;;;;;;;;22.19;68.66;96287.94;614849;231;65015;-60
2023/07/02 06:06:57;;;;;;;;;;;;;;;22.20;68.63;96294.86;614777;231;65093;-60
2023/07/02 06:09:25;;;;;;;;;;;;;;;22.19;68.66;96291.40;614771;231;67422;-60
2023/07/02 06:11:52;;;;;;;;;;;;;;;22.17;69.04;96293.54;614787;231;64670;-60
2023/07/02 06:14:20;;;;;;;;;;;;;;;22.17;69.37;96299.68;614712;229;62958;-60
2023/07/02 06:16:47;;;;;;;;;;;;;;;22.19;69.37;96306.67;614817;231;64838;-60
2023/07/02 06:19:15;;;;;;;;;;;;;;;22.19;69.05;96306.67;614892;231;64370;-60
2023/07/02 06:21:42;;;;;;;;;;;;;;;22.20;69.21;96308.25;614799;229;65185;-60
2023/07/02 06:24:10;;;;;;;;;;;;;;;22.21;69.16;96315.17;614814;231;66987;-60
2023/07/02 06:26:37;;;;;;;;;;;;;;;22.21;69.28;96310.64;614750;231;67030;-60
2023/07/02 06:29:05;;;;;;;;;;;;;;;22.21;69.34;96307.15;614791;231;62538;-60
2023/07/02 06:31:32;;;;;;;;;;;;;;;22.22;69.32;96301.52;614869;231;64633;-60
2023/07/02 06:34:00;;;;;;;;;;;;;;;22.22;69.52;96304.19;614792;231;64702;-60
2023/07/02 06:36:27;;;;;;;;;;;;;;;22.22;69.40;96304.19;614772;231;65055;-60
2023/07/02 06:38:55;;;;;;;;;;;;;;;22.22;69.49;96292.70;614785;231;66742;-60
2023/07/02 06:41:22;;;;;;;;;;;;;;;22.22;69.48;96290.80;614737;228;66926;-60
2023/07/02 06:43:50;;;;;;;;;;;;;;;22.22;69.50;96296.16;614858;231;65041;-60
2023/07/02 06:46:18;;;;;;;;;;;;;;;22.22;69.46;96293.48;614798;231;66885;-60
2023/07/02 06:48:45;;;;;;;;;;;;;;;22.22;69.38;96296.16;614832;231;66777;-61
2023/07/02 06:51:14;;;;;;;;;;;;;;;22.24;69.46;96287.84;614765;231;65160;-60
2023/07/02 06:53:46;;;;;;;;;;;;;;;22.22;69.43;96290.80;614759;231;67215;-60
2023/07/02 06:56:13;;;;;;;;;;;;;;;22.23;69.43;96297.73;614835;231;66628;-60
2023/07/02 06:58:42;;;;;;;;;;;;;;;22.23;69.37;96303.09;614776;231;65074;-61
2023/07/02 07:01:10;;;;;;;;;;;;;;;22.23;69.43;96299.63;614557;231;66997;-61
2023/07/02 07:03:37;;;;;;;;;;;;;;;22.23;69.43;96303.09;614801;231;66763;-61
2023/07/02 07:06:05;;;;;;;;;;;;;;;22.23;69.40;96297.73;614759;231;65107;-61
2023/07/02 07:08:32;;;;;;;;;;;;;;;22.24;69.43;96298.55;614857;231;64498;-61
2023/07/02 07:11:00;;;;;;;;;;;;;;;22.24;69.45;96296.66;614795;231;64705;-61
2023/07/02 07:13:27;;;;;;;;;;;;;;;22.24;69.45;96302.02;616371;229;64976;-61
2023/07/02 07:15:55;;;;;;;;;;;;;;;22.23;69.45;96297.73;617520;230;66879;-61
2023/07/02 07:18:22;;;;;;;;;;;;;;;22.24;69.43;96293.98;617546;229;66811;-61
2023/07/02 07:20:52;;;;;;;;;;;;;;;22.24;69.42;96285.17;617511;228;62716;-61
2023/07/02 07:23:19;;;;;;;;;;;;;;;22.24;69.46;96288.63;617598;230;64578;-61
2023/07/02 07:25:48;;;;;;;;;;;;;;;22.25;69.42;96278.72;617504;230;66812;-62
2023/07/02 07:28:16;;;;;;;;;;;;;;;22.25;69.42;96278.72;617517;230;62955;-62
2023/07/02 07:30:44;;;;;;;;;;;;;;;22.25;69.43;96278.72;617532;230;66967;-62
2023/07/02 07:33:12;;;;;;;;;;;;;;;22.25;69.42;96266.13;617544;230;66581;-61
2023/07/02 07:35:39;;;;;;;;;;;;;;;22.24;69.42;96269.90;617563;230;66064;-62
2023/07/02 07:38:07;;;;;;;;;;;;;;;22.26;69.35;96266.91;617526;230;66945;-62
2023/07/02 07:40:34;;;;;;;;;;;;;;;22.26;69.40;96262.38;617521;230;67026;-62
2023/07/02 07:43:03;;;;;;;;;;;;;;;22.26;69.39;96265.05;617278;230;62991;-62
2023/07/02 07:45:31;;;;;;;;;;;;;;;22.26;69.39;96264.23;617544;230;64706;-62
2023/07/02 07:47:58;;;;;;;;;;;;;;;22.26;69.40;96270.41;617557;230;66786;-62
2023/07/02 07:50:26;;;;;;;;;;;;;;;22.27;69.40;96273.87;617536;228;65021;-62
2023/07/02 07:52:53;;;;;;;;;;;;;;;22.27;69.42;96271.19;617558;230;64703;-62
2023/07/02 07:55:21;;;;;;;;;;;;;;;22.28;69.41;96270.09;617510;230;66808;-62
2023/07/02 07:57:48;;;;;;;;;;;;;;;22.26;69.43;96265.05;617480;230;62805;-62
2023/07/02 08:00:17;;;;;;;;;;;;;;;22.27;69.39;96263.16;617538;230;66761;-62
2023/07/02 08:02:46;;;;;;;;;;;;;;;22.25;69.41;96263.45;617510;230;66392;-62
2023/07/02 08:05:13;;;;;;;;;;;;;;;22.27;69.38;96271.98;617388;230;63092;-62
2023/07/02 08:07:41;;;;;;;;;;;;;;;22.27;69.43;96274.66;617512;230;65011;-61
2023/07/02 08:10:09;;;;;;;;;;;;;;;22.27;69.47;96271.98;617554;230;66903;-61
2023/07/02 08:12:36;;;;;;;;;;;;;;;22.28;69.43;96273.55;617515;229;65026;-61
2023/07/02 08:15:05;;;;;;;;;;;;;;;22.28;69.38;96280.80;617204;230;67021;-61
2023/07/02 08:17:34;;;;;;;;;;;;;;;22.28;69.38;96278.12;617477;230;66817;-62
2023/07/02 08:20:01;;;;;;;;;;;;;;;22.28;69.45;96278.91;617486;230;62966;-62
2023/07/02 08:22:29;;;;;;;;;;;;;;;22.27;69.47;96274.66;617522;230;64714;-62
2023/07/02 08:24:56;;;;;;;;;;;;;;;22.28;69.47;96278.12;617487;230;66748;-62
2023/07/02 08:27:25;;;;;;;;;;;;;;;22.27;69.37;96274.66;617537;230;65055;-62
2023/07/02 08:29:53;;;;;;;;;;;;;;;22.28;69.42;96284.26;617489;230;66774;-61
2023/07/02 08:32:22;;;;;;;;;;;;;;;22.29;69.40;96285.05;617530;230;66827;-61
2023/07/02 08:34:55;;;;;;;;;;;;;;;22.28;69.43;96280.80;617494;230;62917;-61
2023/07/02 08:37:19;;;;;;;;;;;;;;;22.28;69.45;96272.77;617233;229;64676;-61
2023/07/02 08:39:46;;;;;;;;;;;;;;;22.28;69.47;96278.91;617554;230;64727;-61
2023/07/02 08:42:14;;;;;;;;;;;;;;;22.28;69.46;96273.55;617502;230;62969;-61
2023/07/02 08:44:42;;;;;;;;;;;;;;;22.28;69.46;96270.88;617519;230;64601;-61
2023/07/02 08:47:10;;;;;;;;;;;;;;;22.29;69.54;96268.98;617500;228;66552;-61
2023/07/02 08:49:37;;;;;;;;;;;;;;;22.29;69.48;96268.98;617471;230;65121;-61
2023/07/02 08:52:05;;;;;;;;;;;;;;;22.30;69.50;96270.59;617556;230;66900;-61
2023/07/02 08:54:32;;;;;;;;;;;;;;;22.28;69.55;96268.20;617456;230;67159;-61
2023/07/02 08:57:04;;;;;;;;;;;;;;;22.29;69.49;96268.98;617501;230;62879;-61
2023/07/02 08:59:29;;;;;;;;;;;;;;;22.28;69.46;96262.84;617404;229;66843;-61
2023/07/02 09:01:57;;;;;;;;;;;;;;;22.29;69.54;96264.45;617547;230;66685;-61
2023/07/02 09:04:25;;;;;;;;;;;;;;;22.29;69.54;96269.80;617562;230;65029;-61
2023/07/02 09:06:54;;;;;;;;;;;;;;;22.30;69.49;96270.59;617563;230;64740;-61
2023/07/02 09:09:22;;;;;;;;;;;;;;;22.31;69.55;96262.25;615877;229;65109;-61
2023/07/02 09:11:50;;;;;;;;;;;;;;;22.30;69.55;96254.53;617588;229;64981;-61
2023/07/02 09:14:30;;;;;;;;;;;;;;;22.29;69.58;96245.72;614917;229;66530;-61
2023/07/02 09:17:10;;;;;;;;;;;;;;;22.30;69.60;96251.86;614870;231;64486;-62
2023/07/02 09:19:39;;;;;;;;;;;;;;;22.29;69.58;96252.93;614846;231;65036;-62
2023/07/02 09:22:06;;;;;;;;;;;;;;;22.29;69.65;96243.04;614406;229;64647;-62
2023/07/02 09:24:34;;;;;;;;;;;;;;;22.29;69.67;96245.72;614852;231;66723;-62
2023/07/02 09:27:02;;;;;;;;;;;;;;;22.29;69.58;96245.72;614798;231;62658;-62
2023/07/02 09:29:31;;;;;;;;;;;;;;;22.29;69.66;96253.75;614823;231;66605;-61
2023/07/02 09:31:59;;;;;;;;;;;;;;;22.30;69.65;96243.83;614820;231;64470;-62
2023/07/02 09:34:33;;;;;;;;;;;;;;;22.29;69.62;96243.04;614868;231;65119;-62
2023/07/02 09:37:01;;;;;;;;;;;;;;;22.30;69.64;96244.61;614798;231;65051;-61
2023/07/02 09:39:31;;;;;;;;;;;;;;;22.30;69.64;96235.80;614817;228;66828;-62
2023/07/02 09:41:59;;;;;;;;;;;;;;;22.30;69.66;96241.15;614477;231;65067;-62
2023/07/02 09:44:30;;;;;;;;;;;;;;;22.30;69.71;96241.15;614777;231;64627;-62
2023/07/02 09:47:03;;;;;;;;;;;;;;;22.30;69.69;96241.94;614834;231;64526;-62
2023/07/02 09:49:32;;;;;;;;;;;;;;;22.31;69.65;96243.52;614778;231;65077;-62
2023/07/02 09:52:01;;;;;;;;;;;;;;;22.30;69.70;96239.27;614790;231;66938;-62
2023/07/02 09:54:29;;;;;;;;;;;;;;;22.30;69.71;96239.27;614833;231;65410;-62
2023/07/02 09:56:58;;;;;;;;;;;;;;;22.31;69.72;96240.05;614771;231;63007;-62
2023/07/02 09:59:26;;;;;;;;;;;;;;;22.31;69.73;96240.84;614568;229;64442;-62
2023/07/02 10:01:53;;;;;;;;;;;;;;;22.31;69.77;96238.16;614893;231;64224;-62
2023/07/02 10:04:23;;;;;;;;;;;;;;;22.31;69.69;96245.41;614800;231;65046;-62
2023/07/02 10:06:54;;;;;;;;;;;;;;;22.32;69.71;96241.66;614807;231;64595;-62
2023/07/02 10:09:22;;;;;;;;;;;;;;;22.31;69.68;96238.16;614374;231;67147;-62
2023/07/02 10:11:50;;;;;;;;;;;;;;;22.30;69.74;96244.61;614763;231;64993;-62
2023/07/02 10:14:17;;;;;;;;;;;;;;;22.30;69.85;96241.94;617392;227;66944;-62
2023/07/02 10:16:51;;;;;;;;;;;;;;;22.32;69.80;96241.66;617543;230;66792;-62
2023/07/02 10:19:19;;;;;;;;;;;;;;;22.32;69.85;96238.98;617536;230;65084;-62
2023/07/02 10:21:48;;;;;;;;;;;;;;;22.31;69.82;96235.48;617519;230;66923;-62
2023/07/02 10:24:17;;;;;;;;;;;;;;;22.32;69.77;96237.09;617483;228;67046;-62
2023/07/02 10:26:58;;;;;;;;;;;;;;;22.32;69.81;96228.27;617560;230;62810;-62
2023/07/02 10:29:26;;;;;;;;;;;;;;;22.31;69.89;96230.13;617571;230;64677;-61
2023/07/02 10:31:55;;;;;;;;;;;;;;;22.32;69.87;96229.06;617518;230;64939;-61
2023/07/02 10:34:29;;;;;;;;;;;;;;;22.32;69.77;96225.59;617501;230;65184;-62
2023/07/02 10:36:58;;;;;;;;;;;;;;;22.32;69.78;96226.38;617519;230;67513;-62
2023/07/02 10:39:26;;;;;;;;;;;;;;;22.32;69.77;96229.06;617500;227;67034;-62
2023/07/02 10:41:54;;;;;;;;;;;;;;;22.32;69.84;96229.06;617583;230;63184;-62
2023/07/02 10:44:21;;;;;;;;;;;;;;;22.32;69.86;96223.70;617499;230;64871;-62
2023/07/02 10:46:50;;;;;;;;;;;;;;;22.31;69.83;96219.42;617550;230;66959;-62
2023/07/02 10:49:20;;;;;;;;;;;;;;;22.33;69.86;96221.81;617474;230;65052;-62
2023/07/02 10:51:49;;;;;;;;;;;;;;;22.32;69.77;96212.21;617565;230;64995;-62
2023/07/02 10:54:17;;;;;;;;;;;;;;;22.32;69.92;96221.03;617222;229;64823;-61
2023/07/02 10:56:45;;;;;;;;;;;;;;;22.32;69.93;96215.67;617569;230;64858;-61
2023/07/02 10:59:12;;;;;;;;;;;;;;;22.33;69.83;96216.45;617504;230;67049;-62
2023/07/02 11:01:40;;;;;;;;;;;;;;;22.32;69.85;96218.35;617485;229;65036;-62
2023/07/02 11:04:07;;;;;;;;;;;;;;;22.33;69.93;96219.92;617525;230;63816;-62
2023/07/02 11:06:35;;;;;;;;;;;;;;;22.33;69.90;96225.28;617513;230;67458;-61
2023/07/02 11:09:03;;;;;;;;;;;;;;;22.33;69.85;96227.95;617571;230;67009;-61
2023/07/02 11:11:31;;;;;;;;;;;;;;;22.33;69.85;96227.95;617517;230;65060;-62
2023/07/02 11:13:58;;;;;;;;;;;;;;;22.33;69.87;96227.17;617449;229;67139;-61
2023/07/02 11:16:32;;;;;;;;;;;;;;;22.33;69.90;96227.95;617529;230;66770;-62
2023/07/02 11:19:09;;;;;;;;;;;;;;;22.34;69.93;96232.23;617513;230;63131;-62
2023/07/02 11:21:37;;;;;;;;;;;;;;;22.33;69.93;96222.59;617562;230;65086;-62
2023/07/02 11:24:06;;;;;;;;;;;;;;;22.34;69.86;96228.74;617517;230;65592;-61
2023/07/02 11:26:40;;;;;;;;;;;;;;;22.34;69.86;96228.74;617450;230;65205;-62
2023/07/02 11:29:15;;;;;;;;;;;;;;;22.34;69.90;96226.88;617537;230;64986;-62
2023/07/02 11:31:42;;;;;;;;;;;;;;;22.34;69.85;96234.09;617438;228;66918;-62
2023/07/02 11:34:15;;;;;;;;;;;;;;;22.34;69.84;96228.74;617525;230;65035;-62
2023/07/02 11:36:42;;;;;;;;;;;;;;;22.34;69.90;96234.91;617344;230;67206;-62
2023/07/02 11:39:10;;;;;;;;;;;;;;;22.34;69.85;96231.42;617511;230;67016;-61
2023/07/02 11:41:38;;;;;;;;;;;;;;;22.34;69.79;96224.20;617553;230;64873;-61
2023/07/02 11:44:05;;;;;;;;;;;;;;;22.34;69.90;96229.56;617521;230;64769;-60
2023/07/02 11:46:33;;;;;;;;;;;;;;;22.34;69.85;96234.91;617530;230;64901;-60
2023/07/02 11:49:01;;;;;;;;;;;;;;;22.34;69.79;96234.09;617530;230;62944;-60
2023/07/02 11:51:28;;;;;;;;;;;;;;;22.35;69.87;96235.70;617514;230;65151;-60
2023/07/02 11:53:56;;;;;;;;;;;;;;;22.35;69.85;96241.05;617524;227;66702;-61
2023/07/02 11:56:24;;;;;;;;;;;;;;;22.34;69.90;96240.27;617479;230;65058;-61
2023/07/02 11:58:52;;;;;;;;;;;;;;;22.35;69.80;96249.08;617514;230;64705;-60
2023/07/02 12:01:19;;;;;;;;;;;;;;;22.34;69.86;96253.66;617547;230;65125;-61
2023/07/02 12:03:47;;;;;;;;;;;;;;;22.35;69.77;96263.25;617516;230;62714;-61
2023/07/02 12:06:14;;;;;;;;;;;;;;;22.35;69.79;96279.31;617480;230;67064;-61
2023/07/02 12:08:42;;;;;;;;;;;;;;;22.35;69.79;96284.67;617515;230;67038;-61
2023/07/02 12:11:09;;;;;;;;;;;;;;;22.35;69.82;96276.64;617499;230;65042;-61
2023/07/02 12:13:37;;;;;;;;;;;;;;;22.35;69.98;96273.96;615678;229;67462;-60
2023/07/02 12:16:04;;;;;;;;;;;;;;;22.35;69.86;96276.64;614828;231;67020;-60
2023/07/02 12:18:32;;;;;;;;;;;;;;;22.35;69.90;96265.93;614731;231;64896;-60
2023/07/02 12:20:59;;;;;;;;;;;;;;;22.35;69.91;96263.25;614789;231;67263;-60
2023/07/02 12:23:27;;;;;;;;;;;;;;;22.35;69.86;96257.91;614788;231;64854;-60
2023/07/02 12:25:54;;;;;;;;;;;;;;;22.35;69.85;96260.58;614746;231;63006;-60
2023/07/02 12:28:21;;;;;;;;;;;;;;;22.36;69.85;96264.05;614825;231;65020;-60
2023/07/02 12:30:49;;;;;;;;;;;;;;;22.36;69.88;96259.48;614811;231;64773;-60
2023/07/02 12:33:17;;;;;;;;;;;;;;;22.35;69.85;96257.91;614741;231;62914;-61
2023/07/02 12:35:44;;;;;;;;;;;;;;;22.35;69.86;96257.91;614768;231;65092;-60
2023/07/02 12:38:13;;;;;;;;;;;;;;;22.35;69.91;96236.48;614741;231;65355;-60
2023/07/02 12:40:42;;;;;;;;;;;;;;;22.36;69.87;96253.34;608274;231;62974;-61
2023/07/02 12:43:09;;;;;;;;;;;;;;;22.36;69.81;96248.77;614794;231;64951;-60
2023/07/02 12:45:37;;;;;;;;;;;;;;;22.36;69.81;96254.12;614772;231;64889;-61
2023/07/02 12:48:04;;;;;;;;;;;;;;;22.36;69.85;96256.02;614760;231;62906;-60
2023/07/02 12:50:32;;;;;;;;;;;;;;;22.36;69.88;96243.41;614768;231;67178;-60
2023/07/02 12:52:59;;;;;;;;;;;;;;;22.36;69.87;96243.41;614819;231;64901;-61